Time;durP1;ratioP1;P1;durP2;ratioP2;P2;SDS_P1;SDS_P2;PMS_P1;PMS_P2;Temp;Humidity;BMP_temperature;BMP_pressure;BME280_temperature;BME280_humidity;BME280_pressure;Samples;Min_cycle;Max_cycle;Signal;HPM_P1;HPM_P2
2022/12/07 00:23:43;;;;;;;8.35;1.90;;;22.10;58.20;;;;;;5109440;27;20427;-68
2022/12/07 00:26:13;;;;;;;3.28;2.15;;;22.20;58.90;;;;;;5106125;28;20059;-71
2022/12/07 00:28:40;;;;;;;3.20;2.17;;;22.20;58.70;;;;;;5110409;28;20020;-65
2022/12/07 00:31:10;;;;;;;5.18;3.15;;;22.20;58.50;;;;;;5108035;28;20570;-67
2022/12/07 00:33:38;;;;;;;6.07;2.38;;;22.30;58.30;;;;;;5107181;28;20024;-64
2022/12/07 00:36:08;;;;;;;3.15;1.90;;;22.30;57.90;;;;;;5096100;28;20020;-68
2022/12/07 00:38:36;;;;;;;3.28;2.20;;;22.30;57.90;;;;;;5106841;28;20098;-67
2022/12/07 00:41:42;;;;;;;2.00;1.60;;;22.30;57.80;;;;;;5107489;28;20023;-69
2022/12/07 00:44:09;;;;;;;2.33;1.40;;;22.30;57.80;;;;;;5106909;27;20028;-66
2022/12/07 00:46:35;;;;;;;3.53;2.35;;;22.30;57.70;;;;;;5108218;28;20118;-69
2022/12/07 00:49:02;;;;;;;3.90;1.45;;;22.30;57.80;;;;;;5107745;28;20024;-65
2022/12/07 00:51:29;;;;;;;2.80;1.48;;;22.30;57.70;;;;;;5105890;28;20028;-66
2022/12/07 00:53:55;;;;;;;3.30;1.30;;;22.30;57.60;;;;;;5107341;28;21050;-65
2022/12/07 00:56:26;;;;;;;3.15;1.70;;;22.30;57.60;;;;;;5088784;28;20030;-65
2022/12/07 00:59:01;;;;;;;2.85;1.85;;;22.30;57.60;;;;;;5106552;28;20055;-65
2022/12/07 01:01:30;;;;;;;4.78;2.17;;;22.30;57.60;;;;;;5104044;28;20565;-67
2022/12/07 01:03:56;;;;;;;2.53;1.75;;;22.20;57.60;;;;;;5104457;28;20023;-66
2022/12/07 01:06:24;;;;;;;10.35;2.47;;;22.20;57.70;;;;;;5106355;28;20020;-65
2022/12/07 01:08:51;;;;;;;5.70;1.52;;;22.20;57.80;;;;;;5104190;28;20092;-65
2022/12/07 01:11:21;;;;;;;3.42;1.48;;;22.20;57.80;;;;;;5107532;28;20063;-67
2022/12/07 01:13:50;;;;;;;2.85;1.17;;;22.20;57.70;;;;;;5107454;27;20083;-65
2022/12/07 01:16:18;;;;;;;4.15;1.77;;;22.20;57.70;;;;;;5106426;28;20011;-66
2022/12/07 01:18:47;;;;;;;3.72;1.67;;;22.20;57.70;;;;;;5105639;28;20035;-64
2022/12/07 01:21:20;;;;;;;6.47;1.20;;;22.20;57.70;;;;;;5106766;28;20026;-66
2022/12/07 01:23:48;;;;;;;8.65;1.60;;;22.20;57.80;;;;;;5075501;28;20115;-66
2022/12/07 01:26:18;;;;;;;3.13;1.55;;;22.10;58.20;;;;;;5091407;28;20016;-66
2022/12/07 01:28:45;;;;;;;5.05;2.10;;;22.10;57.70;;;;;;5089600;28;20431;-65
2022/12/07 01:31:17;;;;;;;3.70;2.65;;;22.10;57.70;;;;;;5093153;28;20154;-65
2022/12/07 01:33:49;;;;;;;8.57;1.10;;;22.00;57.40;;;;;;5090520;28;20035;-69
2022/12/07 01:36:34;;;;;;;1.85;1.08;;;22.10;57.30;;;;;;5091873;28;20037;-65
2022/12/07 01:39:05;;;;;;;1.60;0.77;;;22.00;57.10;;;;;;5073515;28;20040;-65
2022/12/07 01:41:34;;;;;;;1.48;1.15;;;22.00;56.90;;;;;;5092072;28;20071;-71
2022/12/07 01:44:07;;;;;;;3.67;1.02;;;22.00;56.80;;;;;;5092267;28;20066;-64
2022/12/07 01:46:33;;;;;;;1.58;1.00;;;22.00;56.80;;;;;;5090838;28;20551;-70
2022/12/07 01:49:01;;;;;;;4.68;1.20;;;21.90;56.90;;;;;;5094545;28;20069;-70
2022/12/07 01:51:29;;;;;;;2.30;1.13;;;21.90;57.10;;;;;;5090289;28;20449;-64
2022/12/07 01:53:55;;;;;;;4.75;1.20;;;21.90;57.30;;;;;;5092083;28;20032;-66
2022/12/07 01:56:27;;;;;;;1.27;1.00;;;21.90;57.40;;;;;;5091513;28;20024;-64
2022/12/07 01:58:56;;;;;;;3.03;1.58;;;21.90;57.50;;;;;;5091168;28;20062;-69
2022/12/07 02:01:22;;;;;;;5.20;1.17;;;21.80;57.40;;;;;;5092919;28;20028;-65
2022/12/07 02:03:50;;;;;;;1.30;1.20;;;21.80;57.30;;;;;;5091047;28;20038;-66
2022/12/07 02:06:20;;;;;;;5.57;1.35;;;21.80;57.30;;;;;;5095604;28;20031;-65
2022/12/07 02:08:48;;;;;;;3.45;1.00;;;21.80;57.40;;;;;;5093252;28;20109;-64
2022/12/07 02:11:16;;;;;;;2.17;1.17;;;21.80;57.30;;;;;;5093131;28;20036;-67
2022/12/07 02:13:44;;;;;;;2.10;1.23;;;21.80;57.30;;;;;;5069973;28;20082;-66
2022/12/07 02:16:33;;;;;;;1.10;0.93;;;21.70;57.30;;;;;;5092768;28;20535;-67
2022/12/07 02:19:12;;;;;;;1.17;1.00;;;21.70;57.40;;;;;;5094742;28;20055;-64
2022/12/07 02:21:52;;;;;;;1.77;1.00;;;21.70;57.40;;;;;;5091004;28;20047;-67
2022/12/07 02:24:55;;;;;;;4.30;1.10;;;21.70;57.50;;;;;;5092384;28;20033;-68
2022/12/07 02:27:40;;;;;;;2.70;1.17;;;21.70;57.50;;;;;;5093199;28;20029;-66
2022/12/07 02:30:16;;;;;;;2.55;1.75;;;21.70;57.50;;;;;;5097163;28;20020;-64
2022/12/07 02:33:04;;;;;;;2.50;1.02;;;21.70;57.60;;;;;;5091854;28;20032;-67
2022/12/07 02:35:39;;;;;;;1.45;0.80;;;21.70;57.60;;;;;;5091342;28;20016;-64
2022/12/07 02:38:09;;;;;;;1.48;0.65;;;21.60;57.60;;;;;;5077615;28;20025;-66
2022/12/07 02:41:04;;;;;;;2.58;1.90;;;21.60;57.60;;;;;;5091058;28;20456;-64
2022/12/07 02:43:37;;;;;;;1.48;0.75;;;21.60;57.80;;;;;;5083572;28;20495;-66
2022/12/07 02:46:09;;;;;;;1.52;1.00;;;21.60;58.00;;;;;;5094930;28;20109;-64
2022/12/07 02:48:38;;;;;;;3.30;1.50;;;21.50;58.00;;;;;;5090141;28;20392;-65
2022/12/07 02:51:05;;;;;;;4.20;1.15;;;21.50;58.60;;;;;;5091681;28;20122;-66
2022/12/07 02:53:43;;;;;;;2.65;1.40;;;21.50;57.90;;;;;;5090603;28;20020;-69
2022/12/07 02:56:37;;;;;;;1.08;0.73;;;21.50;57.80;;;;;;5090737;28;20020;-65
2022/12/07 02:59:15;;;;;;;2.50;0.90;;;21.50;57.70;;;;;;5093148;28;20423;-66
2022/12/07 03:01:58;;;;;;;1.40;1.13;;;21.50;57.60;;;;;;5088503;28;20064;-68
2022/12/07 03:04:43;;;;;;;4.95;1.98;;;21.40;57.50;;;;;;5090661;28;20016;-67
2022/12/07 03:07:25;;;;;;;2.00;1.15;;;21.40;57.40;;;;;;5090875;28;20503;-67
2022/12/07 03:10:17;;;;;;;3.13;1.55;;;21.40;57.40;;;;;;5089710;28;20048;-70
2022/12/07 03:13:05;;;;;;;5.13;3.03;;;21.40;57.40;;;;;;5088169;28;20040;-66
2022/12/07 03:15:54;;;;;;;3.15;2.20;;;21.30;57.30;;;;;;5089025;28;20051;-65
2022/12/07 03:18:25;;;;;;;4.85;2.67;;;21.30;57.20;;;;;;5088960;28;20028;-68
2022/12/07 03:20:55;;;;;;;6.88;3.97;;;21.40;57.10;;;;;;5090302;28;20020;-66
2022/12/07 03:23:26;;;;;;;3.88;2.60;;;21.30;56.90;;;;;;5103899;27;20093;-65
2022/12/07 03:25:57;;;;;;;4.68;2.80;;;21.30;57.50;;;;;;5089621;28;20035;-64
2022/12/07 03:28:27;;;;;;;5.28;2.40;;;21.30;56.80;;;;;;5090201;28;20097;-66
2022/12/07 03:31:02;;;;;;;4.30;1.98;;;21.20;56.70;;;;;;5089875;28;20072;-69
2022/12/07 03:34:03;;;;;;;3.78;2.42;;;21.20;56.80;;;;;;5093031;28;20396;-67
2022/12/07 03:36:55;;;;;;;11.15;4.07;;;21.20;56.80;;;;;;5075946;28;20387;-69
2022/12/07 03:39:36;;;;;;;6.10;2.60;;;21.20;56.90;;;;;;5087004;28;20458;-72
2022/12/07 03:42:05;;;;;;;12.25;4.75;;;21.10;57.00;;;;;;5084284;28;20118;-67
2022/12/07 03:44:34;;;;;;;3.83;2.78;;;21.10;57.00;;;;;;5087292;28;20025;-69
2022/12/07 03:47:11;;;;;;;10.15;3.53;;;21.10;57.10;;;;;;5088305;28;20047;-67
2022/12/07 03:49:51;;;;;;;5.05;3.58;;;21.10;57.20;;;;;;5088592;28;20032;-69
2022/12/07 03:52:42;;;;;;;5.28;3.13;;;21.10;57.30;;;;;;5087835;28;20118;-71
2022/12/07 03:55:23;;;;;;;4.38;3.10;;;21.10;57.40;;;;;;5088527;28;20521;-71
2022/12/07 03:57:54;;;;;;;10.15;4.47;;;21.10;57.50;;;;;;5088290;28;20024;-75
2022/12/07 04:00:21;;;;;;;18.33;12.02;;;21.00;57.70;;;;;;5088539;28;20023;-71
2022/12/07 04:02:48;;;;;;;16.45;11.05;;;21.10;58.20;;;;;;5092418;28;20111;-72
2022/12/07 04:05:14;;;;;;;12.40;7.38;;;21.00;58.00;;;;;;5088820;28;20482;-74
2022/12/07 04:07:41;;;;;;;7.20;2.88;;;21.00;58.00;;;;;;5089685;28;20892;-72
2022/12/07 04:10:08;;;;;;;6.05;2.92;;;21.00;58.50;;;;;;5088640;28;20020;-70
2022/12/07 04:12:35;;;;;;;6.43;3.10;;;20.90;59.60;;;;;;5091366;28;20055;-74
2022/12/07 04:15:01;;;;;;;9.75;2.80;;;20.80;60.30;;;;;;5090102;28;20069;-69
2022/12/07 04:17:28;;;;;;;9.40;2.92;;;20.80;60.60;;;;;;5091061;28;20027;-66
2022/12/07 04:19:54;;;;;;;11.55;5.78;;;20.80;61.30;;;;;;5087969;28;20052;-64
2022/12/07 04:22:21;;;;;;;22.15;10.23;;;20.80;61.50;;;;;;5093446;28;20047;-67
2022/12/07 04:24:47;;;;;;;14.52;10.88;;;20.90;61.40;;;;;;5090897;28;20051;-72
2022/12/07 04:27:14;;;;;;;7.00;6.30;;;20.90;61.10;;;;;;5086937;28;20464;-74
2022/12/07 04:29:40;;;;;;;8.40;5.13;;;20.90;60.80;;;;;;5091158;28;20539;-75
2022/12/07 04:32:07;;;;;;;5.47;3.58;;;20.90;60.60;;;;;;5088743;28;20063;-69
2022/12/07 04:34:33;;;;;;;8.27;3.67;;;20.90;60.80;;;;;;5089390;28;20502;-76
2022/12/07 04:37:00;;;;;;;4.95;2.72;;;21.00;61.00;;;;;;5090394;28;20028;-72
2022/12/07 04:39:32;;;;;;;4.10;2.15;;;21.00;61.20;;;;;;5088459;28;20108;-71
2022/12/07 04:42:00;;;;;;;3.22;2.45;;;21.00;61.10;;;;;;5088230;28;20992;-73
2022/12/07 04:44:27;;;;;;;3.60;3.03;;;21.00;60.90;;;;;;5089366;28;20210;-74
2022/12/07 04:47:22;;;;;;;9.57;3.45;;;21.00;60.90;;;;;;5088661;28;20516;-66
2022/12/07 04:50:29;;;;;;;4.85;3.40;;;21.00;60.90;;;;;;5103933;28;20498;-69
2022/12/07 04:52:56;;;;;;;5.28;2.83;;;21.00;60.90;;;;;;5086818;28;20541;-69
2022/12/07 04:55:23;;;;;;;11.57;4.00;;;21.00;60.80;;;;;;5089527;28;20024;-69
2022/12/07 04:57:53;;;;;;;9.82;3.90;;;21.00;61.70;;;;;;5067703;28;20650;-75
2022/12/07 05:00:21;;;;;;;7.28;3.55;;;21.10;61.80;;;;;;5091983;28;20024;-69
2022/12/07 05:02:48;;;;;;;9.35;3.83;;;21.00;62.30;;;;;;5091555;28;20502;-68
2022/12/07 05:05:14;;;;;;;10.90;4.30;;;21.10;62.40;;;;;;5093448;28;20028;-70
2022/12/07 05:08:21;;;;;;;9.23;4.10;;;21.10;62.40;;;;;;5090737;28;20478;-72
2022/12/07 05:10:59;;;;;;;8.25;5.70;;;21.10;62.20;;;;;;5071659;28;20058;-74
2022/12/07 05:13:27;;;;;;;11.10;4.70;;;21.10;62.00;;;;;;5094544;28;20060;-66
2022/12/07 05:15:56;;;;;;;13.50;5.65;;;21.10;61.90;;;;;;5091287;28;20028;-66
2022/12/07 05:18:33;;;;;;;6.47;4.55;;;21.10;61.70;;;;;;5092163;28;20027;-69
2022/12/07 05:21:00;;;;;;;17.45;5.90;;;21.20;61.60;;;;;;5090597;28;20119;-68
2022/12/07 05:23:30;;;;;;;8.85;4.30;;;21.20;61.60;;;;;;5090200;28;20044;-69
2022/12/07 05:25:58;;;;;;;12.32;5.03;;;21.20;61.80;;;;;;5089346;28;20032;-70
2022/12/07 05:28:25;;;;;;;7.65;4.03;;;21.20;62.00;;;;;;5089679;28;20680;-67
2022/12/07 05:30:51;;;;;;;5.13;3.15;;;21.20;62.20;;;;;;5094475;28;20018;-67
2022/12/07 05:33:18;;;;;;;5.70;3.03;;;21.30;62.50;;;;;;5091400;28;20020;-73
2022/12/07 05:35:44;;;;;;;4.53;2.47;;;21.30;62.60;;;;;;5092588;28;20365;-69
2022/12/07 05:38:11;;;;;;;24.05;3.60;;;21.30;62.50;;;;;;5091674;28;20095;-69
2022/12/07 05:40:37;;;;;;;20.90;3.95;;;21.40;62.50;;;;;;5093196;28;20028;-69
2022/12/07 05:43:04;;;;;;;7.47;3.17;;;21.40;62.70;;;;;;5091360;28;20378;-67
2022/12/07 05:45:30;;;;;;;4.70;1.58;;;21.40;62.70;;;;;;5093956;28;20027;-69
2022/12/07 05:47:57;;;;;;;5.60;1.90;;;21.50;62.80;;;;;;5091484;28;20745;-67
2022/12/07 05:50:23;;;;;;;5.40;1.65;;;21.50;62.80;;;;;;5091047;28;20022;-68
2022/12/07 05:52:50;;;;;;;5.72;1.52;;;21.60;62.90;;;;;;5090974;28;20478;-70
2022/12/07 05:55:16;;;;;;;2.33;1.50;;;21.60;62.70;;;;;;5092675;28;20023;-72
2022/12/07 05:59:22;;;;;;;4.63;2.00;;;21.60;62.70;;;;;;5092529;28;20081;-69
2022/12/07 06:00:29;;;;;;;3.22;1.63;;;21.70;62.60;;;;;;5092109;28;20047;-66
2022/12/07 10:18:40;;;;;;;3.30;1.38;;;25.50;55.40;;;;;;6206146;22;2389531;-70
2022/12/07 10:21:16;;;;;;;0.88;0.77;;;25.50;55.40;;;;;;6302988;22;20069;-67
2022/12/07 10:24:03;;;;;;;5.60;1.13;;;25.50;55.30;;;;;;6302648;22;20034;-68
2022/12/07 10:26:38;;;;;;;3.67;1.67;;;25.60;55.00;;;;;;6303813;22;19999;-67
2022/12/07 10:29:16;;;;;;;2.80;1.05;;;25.60;54.90;;;;;;6302383;22;20374;-66
2022/12/07 10:31:44;;;;;;;4.50;1.27;;;25.60;54.60;;;;;;6303884;22;20003;-67
2022/12/07 10:34:35;;;;;;;1.33;0.60;;;25.70;54.10;;;;;;6303673;22;19999;-67
2022/12/07 10:37:19;;;;;;;1.63;0.80;;;25.70;54.00;;;;;;6302351;22;20010;-68
2022/12/07 10:39:54;;;;;;;1.85;0.70;;;25.70;54.20;;;;;;6303754;22;20000;-67
2022/12/07 10:42:23;;;;;;;2.88;0.75;;;25.70;53.80;;;;;;6302559;22;20021;-67
2022/12/07 10:45:09;;;;;;;1.15;0.60;;;25.80;53.50;;;;;;6304527;22;20026;-68
2022/12/07 10:47:49;;;;;;;1.08;0.80;;;25.80;53.20;;;;;;6303675;22;20026;-67
2022/12/07 10:50:45;;;;;;;3.15;0.82;;;25.80;53.10;;;;;;6302162;22;19999;-66
2022/12/07 10:53:14;;;;;;;3.75;0.77;;;25.90;53.10;;;;;;6303981;22;20056;-67
2022/12/07 10:55:59;;;;;;;0.85;0.63;;;25.90;52.80;;;;;;6302777;22;20383;-67
2022/12/07 10:58:50;;;;;;;1.10;0.63;;;25.90;52.40;;;;;;6302561;22;19999;-67
2022/12/07 11:01:25;;;;;;;1.48;0.60;;;25.90;52.20;;;;;;6303710;22;19999;-67
2022/12/07 11:04:00;;;;;;;1.38;1.27;;;26.00;52.20;;;;;;6301992;22;19999;-66
2022/12/07 11:07:01;;;;;;;1.10;0.60;;;26.00;51.80;;;;;;6303289;22;20026;-67
2022/12/07 11:09:30;;;;;;;2.30;0.90;;;26.10;51.70;;;;;;6295068;22;20478;-67
2022/12/07 11:12:12;;;;;;;2.53;0.90;;;26.10;51.90;;;;;;6302128;22;20003;-67
2022/12/07 11:15:01;;;;;;;4.30;1.33;;;26.10;51.70;;;;;;6303425;22;20003;-67
2022/12/07 11:17:49;;;;;;;2.67;0.57;;;26.10;51.40;;;;;;6310857;22;20041;-67
2022/12/07 11:20:36;;;;;;;1.33;0.60;;;26.20;51.80;;;;;;6333919;22;20532;-67
2022/12/07 11:23:20;;;;;;;2.38;0.60;;;26.20;51.80;;;;;;6334782;22;20011;-68
2022/12/07 11:26:02;;;;;;;1.27;0.80;;;26.20;51.80;;;;;;6333240;22;19999;-67
2022/12/07 11:28:35;;;;;;;1.00;0.60;;;26.30;51.70;;;;;;6334065;22;19994;-67
2022/12/07 11:38:01;;;;;;;3.50;0.68;;;26.30;51.60;;;;;;6333159;22;20334;-67
2022/12/07 11:40:53;;;;;;;3.15;0.80;;;26.50;51.50;;;;;;6334602;22;20082;-66
2022/12/07 11:43:32;;;;;;;1.58;0.70;;;26.50;51.50;;;;;;6333594;22;20104;-68
2022/12/07 11:46:02;;;;;;;1.75;0.75;;;26.50;51.40;;;;;;6333724;22;20002;-67
2022/12/07 11:48:41;;;;;;;3.28;0.90;;;26.60;51.50;;;;;;6334318;22;20318;-67
2022/12/07 11:51:12;;;;;;;2.95;0.50;;;26.60;51.50;;;;;;6333234;22;20011;-66
2022/12/07 11:53:40;;;;;;;4.03;1.35;;;26.70;51.40;;;;;;6334261;22;20493;-67
2022/12/07 11:56:20;;;;;;;7.20;1.40;;;26.70;51.10;;;;;;6334138;22;20488;-66
2022/12/07 11:58:52;;;;;;;8.00;1.00;;;26.70;51.20;;;;;;6333543;22;20052;-67
2022/12/07 12:01:33;;;;;;;7.05;1.30;;;26.70;52.50;;;;;;6334327;22;20073;-67
2022/12/07 12:04:12;;;;;;;6.35;0.85;;;26.70;52.20;;;;;;6333235;22;20007;-66
2022/12/07 12:06:43;;;;;;;3.50;1.13;;;26.80;52.00;;;;;;6334161;22;20009;-66
2022/12/07 12:09:42;;;;;;;5.85;1.00;;;26.80;51.90;;;;;;6333200;22;20002;-66
2022/12/07 12:12:23;;;;;;;2.65;0.63;;;26.80;52.30;;;;;;6333075;22;20025;-67
2022/12/07 12:15:20;;;;;;;8.70;1.50;;;26.80;52.00;;;;;;6334384;22;20103;-67
2022/12/07 12:18:25;;;;;;;4.18;1.38;;;26.80;52.70;;;;;;6333236;22;20068;-67
2022/12/07 12:21:12;;;;;;;16.90;1.77;;;26.90;53.30;;;;;;6177003;23;20001;-67
2022/12/07 12:23:50;;;;;;;5.70;1.15;;;26.80;54.10;;;;;;6324408;22;20018;-66
2022/12/07 12:26:26;;;;;;;3.90;1.00;;;26.80;54.20;;;;;;6332943;22;19998;-67
2022/12/07 12:28:58;;;;;;;2.88;0.95;;;26.80;54.10;;;;;;6334141;22;20026;-68
2022/12/07 12:31:28;;;;;;;5.05;0.98;;;26.80;54.20;;;;;;6334080;22;20037;-69
2022/12/07 12:33:55;;;;;;;1.38;0.70;;;26.80;54.60;;;;;;6333541;22;20048;-67
2022/12/07 12:36:30;;;;;;;4.43;1.40;;;26.80;54.60;;;;;;6333898;22;20006;-70
2022/12/07 12:39:18;;;;;;;2.47;1.00;;;26.90;54.80;;;;;;6332594;22;20573;-69
2022/12/07 12:44:18;;;;;;;4.50;1.77;;;27.00;54.60;;;;;;6333794;22;20003;-67
2022/12/07 12:46:56;;;;;;;3.13;1.25;;;27.00;54.20;;;;;;6333390;22;20005;-70
2022/12/07 12:49:23;;;;;;;2.10;1.00;;;27.00;53.60;;;;;;6335441;22;19999;-70
2022/12/07 12:52:19;;;;;;;4.97;1.33;;;27.00;53.40;;;;;;6334392;22;20023;-67
2022/12/07 12:55:13;;;;;;;2.65;1.75;;;26.90;53.60;;;;;;6263007;22;20064;-67
2022/12/07 12:57:39;;;;;;;3.67;1.20;;;26.90;53.80;;;;;;6331041;22;20011;-67
2022/12/07 13:00:23;;;;;;;3.53;1.70;;;26.90;54.00;;;;;;6334893;22;20074;-67
2022/12/07 13:02:52;;;;;;;4.55;1.35;;;26.90;54.00;;;;;;6335984;22;20014;-69
2022/12/07 13:05:23;;;;;;;4.55;1.30;;;26.90;53.90;;;;;;6334710;22;20364;-70
2022/12/07 13:07:53;;;;;;;3.78;1.08;;;26.90;53.90;;;;;;6335472;22;20437;-71
2022/12/07 13:10:32;;;;;;;1.60;0.68;;;27.00;54.70;;;;;;6335427;22;20414;-71
2022/12/07 13:13:11;;;;;;;3.95;1.50;;;27.00;53.80;;;;;;6334317;22;20002;-71
2022/12/07 13:15:50;;;;;;;3.05;0.98;;;26.90;53.50;;;;;;6335609;22;20010;-70
2022/12/07 13:18:35;;;;;;;3.40;1.02;;;26.90;53.40;;;;;;6334859;22;20033;-68
2022/12/07 13:21:01;;;;;;;10.95;1.38;;;26.90;53.50;;;;;;6334938;22;20013;-69
2022/12/07 13:23:46;;;;;;;2.00;1.15;;;26.90;53.60;;;;;;6335510;22;20018;-71
2022/12/07 13:26:30;;;;;;;2.35;1.08;;;26.90;53.80;;;;;;6334409;22;20010;-71
2022/12/07 13:29:20;;;;;;;2.25;1.00;;;26.80;53.70;;;;;;6335292;22;20050;-70
2022/12/07 13:31:56;;;;;;;2.83;0.63;;;26.80;54.30;;;;;;6335038;22;20295;-71
2022/12/07 13:34:31;;;;;;;7.82;1.98;;;26.80;54.90;;;;;;6334490;22;20771;-70
2022/12/07 13:36:58;;;;;;;6.82;1.70;;;26.80;55.60;;;;;;6335533;22;20003;-68
2022/12/07 13:39:26;;;;;;;10.13;2.97;;;26.80;56.00;;;;;;6333844;22;19995;-68
2022/12/07 13:41:56;;;;;;;4.72;1.30;;;26.80;56.20;;;;;;6335764;22;20018;-71
2022/12/07 13:44:24;;;;;;;2.72;0.98;;;26.90;56.40;;;;;;6334625;22;19995;-68
2022/12/07 13:47:28;;;;;;;11.02;1.65;;;26.90;56.00;;;;;;6335045;22;20002;-71
2022/12/07 13:49:56;;;;;;;5.28;1.92;;;26.90;55.60;;;;;;6314627;22;20011;-67
2022/12/07 13:52:28;;;;;;;1.63;1.00;;;26.90;55.80;;;;;;6333918;22;19998;-71
2022/12/07 13:55:00;;;;;;;1.25;0.75;;;26.90;55.90;;;;;;6334816;22;19995;-67
2022/12/07 13:57:30;;;;;;;3.33;1.40;;;26.80;55.70;;;;;;6334859;22;20037;-70
2022/12/07 13:59:57;;;;;;;7.00;1.80;;;26.90;55.60;;;;;;6334744;22;20025;-67
2022/12/07 16:14:26;;;;;;;11.85;3.00;;;26.00;58.40;;;;;;5105434;27;20424;-76
2022/12/07 16:16:53;;;;;;;6.38;2.92;;;26.10;58.60;;;;;;5104557;28;20028;-78
2022/12/07 16:19:19;;;;;;;7.38;2.30;;;26.10;58.30;;;;;;5085102;28;20070;-76
2022/12/07 16:21:46;;;;;;;6.63;2.35;;;26.30;58.10;;;;;;5101205;28;20407;-67
2022/12/07 16:24:14;;;;;;;5.20;2.38;;;26.30;57.80;;;;;;5104593;28;20386;-76
2022/12/07 16:26:41;;;;;;;6.07;2.90;;;26.30;57.60;;;;;;5104985;28;20028;-73
2022/12/07 16:29:12;;;;;;;6.22;2.20;;;26.40;57.40;;;;;;5103077;28;20028;-67
2022/12/07 16:31:39;;;;;;;12.35;3.22;;;26.40;57.30;;;;;;5104322;28;20035;-70
2022/12/07 16:34:06;;;;;;;5.32;1.95;;;26.40;57.10;;;;;;5100702;28;20012;-74
2022/12/07 16:36:33;;;;;;;8.65;1.85;;;26.40;57.00;;;;;;5107327;28;20482;-72
2022/12/07 16:39:00;;;;;;;9.82;2.53;;;26.40;57.00;;;;;;5105824;28;20047;-74
2022/12/07 16:41:27;;;;;;;5.85;1.60;;;26.40;57.00;;;;;;5103736;28;20024;-73
2022/12/07 16:43:53;;;;;;;7.03;1.80;;;26.40;56.90;;;;;;5101565;28;20028;-74
2022/12/07 16:46:20;;;;;;;4.25;1.52;;;26.50;56.90;;;;;;5102938;28;20015;-73
2022/12/07 16:48:49;;;;;;;3.42;1.20;;;26.50;56.70;;;;;;5103300;28;20383;-72
2022/12/07 16:51:16;;;;;;;3.80;1.20;;;26.50;56.50;;;;;;5103691;28;20011;-72
2022/12/07 16:53:42;;;;;;;2.50;1.52;;;26.50;55.80;;;;;;5102048;28;20449;-74
2022/12/07 16:56:14;;;;;;;3.53;1.45;;;26.50;55.40;;;;;;5099854;28;20039;-70
2022/12/07 16:58:42;;;;;;;1.77;0.98;;;26.50;55.00;;;;;;5104758;28;20115;-74
2022/12/07 17:01:19;;;;;;;1.95;0.70;;;26.50;54.80;;;;;;5099546;28;20371;-75
2022/12/07 17:03:46;;;;;;;5.65;1.17;;;26.50;54.50;;;;;;5102957;28;20265;-75
2022/12/07 17:06:24;;;;;;;21.20;19.00;;;26.50;54.30;;;;;;5106580;28;20073;-71
2022/12/07 17:08:52;;;;;;;7.82;5.68;;;26.50;54.20;;;;;;5102105;28;20016;-77
2022/12/07 17:11:24;;;;;;;6.47;4.85;;;26.50;54.00;;;;;;5100789;28;20047;-75
2022/12/07 17:16:36;;;;;;;3.38;3.08;;;26.40;53.60;;;;;;5090726;28;20116;-75
2022/12/07 17:19:12;;;;;;;4.95;4.00;;;26.40;53.60;;;;;;5086616;28;20490;-73
2022/12/07 17:21:39;;;;;;;1.50;1.40;;;26.40;53.60;;;;;;5069494;28;20047;-74
2022/12/07 17:24:08;;;;;;;3.63;1.42;;;26.40;53.50;;;;;;5090708;28;20016;-77
2022/12/07 17:26:35;;;;;;;1.75;1.52;;;26.30;53.30;;;;;;5085314;28;20471;-74
2022/12/07 17:29:07;;;;;;;1.45;1.00;;;26.30;53.40;;;;;;5091566;28;20114;-75
2022/12/07 17:31:34;;;;;;;4.85;1.55;;;26.30;53.40;;;;;;5072127;28;20055;-75
2022/12/07 17:34:21;;;;;;;8.30;1.23;;;26.20;53.60;;;;;;5071236;28;20021;-76
2022/12/07 17:36:47;;;;;;;9.38;1.55;;;26.20;53.80;;;;;;5090360;28;20032;-73
2022/12/07 17:39:17;;;;;;;8.27;1.30;;;26.20;53.80;;;;;;5086236;28;20489;-76
2022/12/07 17:44:32;;;;;;;7.38;1.10;;;26.10;53.80;;;;;;5080823;28;20051;-76
2022/12/07 17:47:01;;;;;;;8.15;2.33;;;26.10;53.80;;;;;;5092563;28;20580;-74
2022/12/07 17:49:27;;;;;;;5.97;1.15;;;26.10;53.90;;;;;;5085988;28;20119;-69
2022/12/07 17:54:39;;;;;;;19.50;12.75;;;26.00;54.60;;;;;;5087584;28;20051;-76
2022/12/07 17:57:06;;;;;;;14.65;10.15;;;26.00;54.70;;;;;;5090237;28;20030;-71
2022/12/07 17:59:32;;;;;;;7.40;6.50;;;26.00;54.90;;;;;;5086793;28;20023;-71
2022/12/07 18:01:59;;;;;;;5.68;4.85;;;25.90;55.00;;;;;;5079924;28;20050;-75
2022/12/07 18:04:26;;;;;;;8.07;2.65;;;25.90;55.30;;;;;;5083305;28;20103;-75
2022/12/07 18:06:52;;;;;;;6.40;2.47;;;25.90;55.50;;;;;;5086335;28;20462;-75
2022/12/07 18:09:20;;;;;;;6.85;1.50;;;25.90;55.80;;;;;;5085568;28;20028;-74
2022/12/07 18:11:47;;;;;;;3.13;1.20;;;25.80;55.90;;;;;;5086649;28;20023;-72
2022/12/07 18:14:15;;;;;;;13.10;1.60;;;25.80;56.00;;;;;;5091204;28;20097;-74
2022/12/07 18:16:41;;;;;;;9.30;1.63;;;25.80;56.10;;;;;;5087722;28;20514;-72
2022/12/07 18:19:08;;;;;;;4.88;1.80;;;25.70;56.30;;;;;;5082530;28;20020;-74
2022/12/07 18:21:35;;;;;;;11.55;1.63;;;25.70;56.80;;;;;;5084406;28;20410;-73
2022/12/07 18:24:03;;;;;;;11.23;4.53;;;25.70;57.00;;;;;;5090794;28;20020;-73
2022/12/07 18:26:34;;;;;;;23.80;17.90;;;25.70;56.80;;;;;;5086081;28;20071;-74
2022/12/07 18:29:01;;;;;;;25.65;22.83;;;25.70;56.80;;;;;;5082998;28;20024;-73
2022/12/07 18:31:28;;;;;;;20.50;16.95;;;25.70;57.00;;;;;;5090288;28;20040;-74
2022/12/07 18:33:56;;;;;;;12.52;9.57;;;25.70;57.00;;;;;;5088436;28;20356;-74
2022/12/07 18:36:25;;;;;;;6.80;6.00;;;25.60;57.00;;;;;;5087929;28;20029;-73
2022/12/07 18:38:52;;;;;;;4.60;4.13;;;25.60;57.30;;;;;;5091660;28;20028;-74
2022/12/07 18:41:19;;;;;;;7.68;3.22;;;25.60;57.40;;;;;;5085769;28;20066;-75
2022/12/07 18:43:46;;;;;;;5.00;2.83;;;25.50;57.50;;;;;;5079038;28;20035;-74
2022/12/07 18:46:15;;;;;;;3.13;2.28;;;25.50;57.70;;;;;;5090821;28;20043;-72
2022/12/07 18:48:41;;;;;;;3.08;1.98;;;25.50;57.80;;;;;;5091014;28;20395;-76
2022/12/07 18:51:11;;;;;;;3.10;1.88;;;25.50;57.90;;;;;;5087393;28;20385;-72
2022/12/07 18:53:37;;;;;;;5.25;1.40;;;25.40;57.70;;;;;;5085449;28;20024;-75
2022/12/07 18:56:12;;;;;;;4.57;2.22;;;25.40;57.70;;;;;;5086855;28;20069;-75
2022/12/07 19:01:24;;;;;;;5.15;1.75;;;25.40;57.80;;;;;;5086220;28;20043;-74
2022/12/07 19:04:09;;;;;;;5.90;1.85;;;25.30;57.80;;;;;;5085171;28;20020;-75
2022/12/07 19:06:36;;;;;;;2.20;1.67;;;25.30;58.10;;;;;;5084778;28;20056;-75
2022/12/07 19:09:03;;;;;;;7.88;2.03;;;25.30;58.30;;;;;;5086726;28;20031;-73
2022/12/07 19:11:50;;;;;;;4.78;2.00;;;25.30;58.70;;;;;;5080505;28;20043;-77
2022/12/07 19:14:28;;;;;;;13.13;7.32;;;25.30;59.10;;;;;;5063303;28;20055;-74
2022/12/07 19:16:57;;;;;;;14.60;13.02;;;25.30;59.50;;;;;;5080670;28;20020;-73
2022/12/07 19:19:33;;;;;;;14.75;9.85;;;25.20;59.80;;;;;;5085127;28;20679;-74
2022/12/07 19:22:00;;;;;;;8.13;4.43;;;25.20;60.00;;;;;;5071209;28;20044;-72
2022/12/07 19:24:27;;;;;;;7.53;4.13;;;25.20;60.20;;;;;;5087013;28;20103;-73
2022/12/07 19:26:54;;;;;;;3.42;2.20;;;25.20;60.20;;;;;;5087956;28;20024;-71
2022/12/07 19:29:21;;;;;;;1.98;1.40;;;25.20;60.30;;;;;;5090520;28;20139;-71
2022/12/07 19:31:48;;;;;;;3.42;1.38;;;25.20;60.40;;;;;;5092450;28;20055;-71
2022/12/07 19:34:16;;;;;;;5.20;1.35;;;25.20;60.70;;;;;;5085734;28;20039;-73
2022/12/07 19:36:43;;;;;;;3.72;1.48;;;25.20;60.90;;;;;;5088320;28;20538;-70
2022/12/07 19:39:09;;;;;;;1.98;1.55;;;25.10;61.10;;;;;;5088011;28;20073;-72
2022/12/07 19:41:38;;;;;;;3.38;1.30;;;25.10;61.20;;;;;;5087407;28;20115;-74
2022/12/07 19:44:19;;;;;;;3.13;1.42;;;25.10;61.50;;;;;;5090413;28;20024;-71
2022/12/07 19:46:48;;;;;;;2.13;1.15;;;25.10;61.80;;;;;;5070122;28;20462;-71
2022/12/07 19:49:16;;;;;;;2.95;1.52;;;25.10;61.80;;;;;;5088446;28;20028;-75
2022/12/07 19:51:48;;;;;;;2.00;1.13;;;25.00;61.90;;;;;;5087835;28;20467;-71
2022/12/07 19:54:17;;;;;;;11.07;4.35;;;25.00;62.40;;;;;;5086738;28;20028;-71
2022/12/07 19:56:44;;;;;;;14.45;6.22;;;25.00;62.80;;;;;;5081939;28;20104;-71
2022/12/07 19:59:12;;;;;;;9.80;8.80;;;25.00;63.10;;;;;;5088788;28;20028;-71
2022/12/07 20:01:42;;;;;;;8.85;5.15;;;25.00;63.70;;;;;;5086199;28;20448;-70
2022/12/07 20:04:18;;;;;;;4.55;3.92;;;25.00;63.80;;;;;;5081106;28;20024;-70
2022/12/07 20:06:46;;;;;;;4.05;2.60;;;24.90;64.10;;;;;;5087711;28;20368;-71
2022/12/07 20:09:13;;;;;;;3.10;1.80;;;24.90;64.00;;;;;;5082875;28;20024;-71
2022/12/07 20:14:44;;;;;;;8.18;3.03;;;24.90;64.50;;;;;;5010832;28;20053;-71
2022/12/07 20:17:11;;;;;;;13.20;7.32;;;24.90;65.00;;;;;;5012443;28;20025;-72
2022/12/07 20:19:39;;;;;;;13.57;12.07;;;24.90;64.70;;;;;;5030157;28;20032;-72
2022/12/07 20:22:05;;;;;;;18.27;15.75;;;24.90;64.90;;;;;;5092080;28;20050;-75
2022/12/07 20:24:33;;;;;;;14.57;9.93;;;24.90;64.90;;;;;;5086023;28;20479;-72
2022/12/07 20:27:01;;;;;;;8.75;5.50;;;24.90;65.50;;;;;;5084982;28;20023;-72
2022/12/07 20:29:27;;;;;;;3.63;2.78;;;24.90;65.60;;;;;;5086847;28;20471;-74